Time;durP1;ratioP1;P1;durP2;ratioP2;P2;SDS_P1;SDS_P2;PMS_P1;PMS_P2;Temp;Humidity;BMP_temperature;BMP_pressure;BME280_temperature;BME280_humidity;BME280_pressure;Samples;Min_cycle;Max_cycle;Signal;HPM_P1;HPM_P2
2023/08/13 12:52:08;;;;;;;5.70;3.97;;;;;;;-143.21;35.86;70714.09;5139065;22;20200;-77
2023/08/13 12:54:35;;;;;;;5.88;3.85;;;;;;;-143.21;36.25;70751.75;5050134;28;20222;-82
2023/08/13 12:57:02;;;;;;;4.10;3.53;;;;;;;-143.21;36.31;70767.63;5060163;28;20201;-83
2023/08/13 12:59:29;;;;;;;7.15;4.40;;;;;;;-143.21;36.55;70769.59;5073768;28;20216;-81
2023/08/13 13:01:55;;;;;;;4.50;4.07;;;;;;;-143.21;36.56;70755.72;5071641;28;20201;-81
2023/08/13 13:04:22;;;;;;;4.07;3.63;;;;;;;-143.21;36.26;70747.78;5072781;28;20208;-81
2023/08/13 13:06:51;;;;;;;5.95;4.05;;;;;;;-143.21;36.14;70759.69;5072457;28;20193;-84
2023/08/13 13:09:19;;;;;;;4.97;3.83;;;;;;;-143.21;36.32;70761.66;5073010;28;20213;-83
2023/08/13 13:11:46;;;;;;;4.18;3.75;;;;;;;-143.21;36.55;70769.59;5071322;28;20217;-81
2023/08/13 13:14:12;;;;;;;4.22;3.83;;;;;;;-143.21;36.46;70789.41;5072712;28;20194;-82
2023/08/13 13:16:39;;;;;;;14.20;4.03;;;;;;;-143.21;37.15;70813.19;5062399;28;20590;-82
2023/08/13 13:19:06;;;;;;;8.93;4.35;;;;;;;-143.21;36.92;70823.13;5069187;28;20201;-85
2023/08/13 13:21:33;;;;;;;4.53;4.07;;;;;;;-143.21;37.68;70842.94;5068337;28;20193;-83
2023/08/13 13:24:00;;;;;;;4.85;4.15;;;;;;;-143.21;37.36;70844.91;5070868;28;20288;-83
2023/08/13 13:26:28;;;;;;;5.30;4.28;;;;;;;-143.21;37.58;70840.97;5072531;28;20209;-83
2023/08/13 13:28:55;;;;;;;7.57;4.30;;;;;;;-143.21;37.12;70819.16;5072549;28;20193;-84
2023/08/13 13:31:22;;;;;;;5.75;4.40;;;;;;;-143.21;37.21;70779.50;5072399;28;20229;-84
2023/08/13 13:33:49;;;;;;;6.38;4.40;;;;;;;-143.21;36.42;70720.03;5071964;28;20201;-83
2023/08/13 13:36:16;;;;;;;5.43;3.70;;;;;;;-143.21;35.98;70682.38;5072007;28;20216;-83
2023/08/13 13:38:43;;;;;;;4.18;3.58;;;;;;;-143.21;35.38;70666.50;5072531;28;20296;-83
2023/08/13 13:41:10;;;;;;;7.00;4.25;;;;;;;-143.21;35.76;70652.66;5072511;28;20197;-84
2023/08/13 13:43:38;;;;;;;6.68;4.30;;;;;;;-143.21;35.36;70632.81;5072222;28;20620;-82
2023/08/13 13:46:05;;;;;;;5.72;4.20;;;;;;;-143.21;35.39;70640.75;5072080;28;20527;-83
2023/08/13 13:48:32;;;;;;;7.10;4.15;;;;;;;-143.21;35.08;70626.88;5071807;28;20189;-83
2023/08/13 13:50:58;;;;;;;7.15;4.10;;;;;;;-143.21;34.74;70618.94;5071824;28;20217;-83
2023/08/13 13:53:25;;;;;;;5.90;4.20;;;;;;;-143.21;33.94;70634.81;5071785;28;20229;-83
2023/08/13 13:55:52;;;;;;;4.60;3.60;;;;;;;-143.21;34.75;70642.72;5071804;28;20209;-82
2023/08/13 13:58:19;;;;;;;7.47;4.07;;;;;;;-143.21;35.06;70632.81;5071780;28;20201;-83
2023/08/13 14:00:48;;;;;;;5.15;3.80;;;;;;;-143.21;34.77;70609.03;5071573;28;20194;-83
2023/08/13 14:03:16;;;;;;;4.57;3.72;;;;;;;-143.21;34.66;70571.38;5071757;28;20205;-82
2023/08/13 14:05:43;;;;;;;6.82;3.65;;;;;;;-143.21;34.13;70527.75;5077093;28;20247;-82
2023/08/13 14:08:10;;;;;;;6.00;3.80;;;;;;;-143.21;34.01;70525.78;5071420;28;20228;-83
2023/08/13 14:10:37;;;;;;;5.93;3.55;;;;;;;-143.21;34.11;70567.41;5071526;28;20295;-83
2023/08/13 14:13:04;;;;;;;5.35;3.70;;;;;;;-143.21;34.08;70622.91;5070990;28;20196;-86
2023/08/13 14:15:31;;;;;;;4.38;3.75;;;;;;;-143.21;35.15;70654.63;5071517;28;20705;-83
2023/08/13 14:17:59;;;;;;;4.35;3.70;;;;;;;-143.21;35.34;70690.31;5071022;28;20188;-84
2023/08/13 14:20:26;;;;;;;3.97;3.58;;;;;;;-143.21;36.11;70729.94;5071799;28;20204;-82
2023/08/13 14:22:52;;;;;;;4.35;3.72;;;;;;;-143.21;36.24;70761.66;5071844;28;20200;-82
2023/08/13 14:25:19;;;;;;;5.57;4.20;;;;;;;-143.21;36.77;70785.44;5071165;28;20205;-82
2023/08/13 14:27:46;;;;;;;5.30;3.78;;;;;;;-143.21;37.13;70799.31;5071479;28;20569;-82
2023/08/13 14:30:14;;;;;;;9.20;4.45;;;;;;;-143.21;37.40;70801.31;5071349;28;20224;-83
2023/08/13 14:32:40;;;;;;;6.05;4.47;;;;;;;-143.21;37.00;70817.16;5071330;28;20205;-83
2023/08/13 14:35:09;;;;;;;4.57;4.13;;;;;;;-143.21;37.42;70831.03;5071415;28;20635;-81
2023/08/13 14:37:36;;;;;;;5.05;4.30;;;;;;;-143.21;37.22;70840.97;5071665;28;20200;-82
2023/08/13 14:40:03;;;;;;;7.90;3.90;;;;;;;-143.21;37.16;70846.91;5071348;28;20671;-82
2023/08/13 14:42:30;;;;;;;5.97;4.10;;;;;;;-143.21;37.88;70856.81;5073749;28;20288;-83
2023/08/13 14:44:57;;;;;;;5.05;4.10;;;;;;;-143.21;37.63;70876.63;5071545;28;20201;-82
2023/08/13 14:47:24;;;;;;;4.78;4.20;;;;;;;-143.21;37.29;70884.56;5071053;28;20733;-81
2023/08/13 14:49:50;;;;;;;6.03;4.18;;;;;;;-143.21;37.44;70884.56;5071457;28;20198;-82
2023/08/13 14:52:19;;;;;;;4.60;4.10;;;;;;;-143.21;37.92;70888.53;5071260;28;20220;-82
2023/08/13 14:54:45;;;;;;;5.88;4.28;;;;;;;-143.21;38.05;70890.50;5071470;28;20244;-83
2023/08/13 14:57:12;;;;;;;5.93;4.00;;;;;;;-143.21;38.44;70894.47;5071536;28;20280;-82
2023/08/13 14:59:39;;;;;;;6.32;4.20;;;;;;;-143.21;38.84;70888.53;5071480;28;20201;-81
2023/08/13 15:02:06;;;;;;;6.60;4.32;;;;;;;-143.21;38.82;70896.47;5070959;28;20205;-82
2023/08/13 15:04:33;;;;;;;7.28;4.72;;;;;;;-143.21;38.56;70896.47;5071436;28;20193;-82
2023/08/13 15:07:00;;;;;;;5.28;4.25;;;;;;;-143.21;38.68;70898.44;5071840;28;20213;-79
2023/08/13 15:09:28;;;;;;;6.90;4.22;;;;;;;-143.21;38.73;70894.47;5073879;28;20193;-80
2023/08/13 15:11:55;;;;;;;6.50;4.38;;;;;;;-143.21;38.55;70892.50;5071818;28;20279;-79
2023/08/13 15:14:22;;;;;;;5.88;3.92;;;;;;;-143.21;38.72;70878.63;5071229;28;20197;-80
2023/08/13 15:16:49;;;;;;;4.40;4.00;;;;;;;-143.21;38.58;70850.88;5056798;28;20328;-77
2023/08/13 15:19:16;;;;;;;9.32;5.03;;;;;;;-143.21;37.93;70819.16;5071264;28;20239;-78
2023/08/13 15:21:43;;;;;;;7.03;4.50;;;;;;;-143.21;38.63;70805.28;5070953;28;20197;-81
2023/08/13 15:24:09;;;;;;;7.07;4.60;;;;;;;-143.21;37.90;70787.44;5071725;28;20220;-78
2023/08/13 15:26:39;;;;;;;7.45;4.50;;;;;;;-143.21;37.70;70799.31;5074611;28;20560;-77
2023/08/13 15:29:06;;;;;;;5.45;4.38;;;;;;;-143.21;37.77;70793.38;5075137;28;20193;-78
2023/08/13 15:31:33;;;;;;;6.00;4.15;;;;;;;-143.21;37.60;70823.13;5074579;28;20223;-77
2023/08/13 15:34:00;;;;;;;5.82;4.25;;;;;;;-143.21;38.03;70833.03;5075508;28;20266;-77
2023/08/13 15:36:27;;;;;;;6.85;4.40;;;;;;;-143.21;37.94;70856.81;5076172;28;20212;-77
2023/08/13 15:38:54;;;;;;;7.68;4.10;;;;;;;-143.21;37.71;70872.66;5074703;28;20200;-78
2023/08/13 15:41:21;;;;;;;5.97;4.15;;;;;;;-143.21;38.11;70874.66;5074847;28;20204;-77
2023/08/13 15:43:49;;;;;;;6.00;4.40;;;;;;;-143.21;38.45;70884.56;5074701;28;20204;-79
2023/08/13 15:46:16;;;;;;;8.85;4.22;;;;;;;-143.21;38.82;70908.34;5074472;28;20189;-77
2023/08/13 15:48:42;;;;;;;6.65;4.68;;;;;;;-143.21;39.25;70912.31;5074648;28;20204;-78
2023/08/13 15:51:09;;;;;;;5.38;3.85;;;;;;;-143.21;39.39;70918.25;5074689;28;20229;-81
2023/08/13 15:53:39;;;;;;;6.65;4.40;;;;;;;-143.21;39.39;70918.25;5075383;28;20242;-72
2023/08/13 15:56:05;;;;;;;7.15;4.45;;;;;;;-143.21;39.54;70928.19;5074434;28;20254;-79
2023/08/13 15:58:33;;;;;;;6.80;4.32;;;;;;;-143.21;39.44;70930.16;5074491;28;20193;-80
2023/08/13 16:01:01;;;;;;;7.28;4.43;;;;;;;-143.21;39.24;70932.13;5073759;28;20216;-78
2023/08/13 16:03:27;;;;;;;7.22;4.22;;;;;;;-143.21;39.45;70922.22;5074011;28;20186;-77
2023/08/13 16:05:54;;;;;;;6.00;3.97;;;;;;;-143.21;39.10;70900.41;5074002;28;20216;-77
2023/08/13 16:08:21;;;;;;;4.82;4.32;;;;;;;-143.21;39.11;70904.38;5074257;28;20267;-77
2023/08/13 16:10:57;;;;;;;12.07;4.30;;;;;;;-143.21;39.15;70912.31;5073619;28;20636;-77
2023/08/13 16:13:24;;;;;;;5.70;4.25;;;;;;;-143.21;39.56;70912.31;5073783;28;20254;-78
2023/08/13 16:15:51;;;;;;;5.60;4.50;;;;;;;-143.21;39.35;70922.22;5074356;28;20215;-78
2023/08/13 16:18:19;;;;;;;6.43;4.50;;;;;;;-143.21;39.56;70916.28;5075561;28;20197;-78
2023/08/13 16:20:46;;;;;;;10.15;4.45;;;;;;;-143.21;39.36;70904.38;5074159;28;20621;-78
2023/08/13 16:23:13;;;;;;;4.55;3.92;;;;;;;-143.21;38.79;70894.47;5073899;28;20190;-78
2023/08/13 16:25:40;;;;;;;7.22;4.53;;;;;;;-143.21;38.60;70896.47;5073989;28;20197;-79
2023/08/13 16:28:07;;;;;;;6.03;4.55;;;;;;;-143.21;38.13;70900.41;5073950;28;20198;-79
2023/08/13 16:30:33;;;;;;;5.40;4.25;;;;;;;-143.21;37.97;70910.34;5074225;28;20577;-79
2023/08/13 16:33:00;;;;;;;4.50;3.90;;;;;;;-143.21;38.10;70924.22;5073857;28;20627;-79
2023/08/13 16:35:28;;;;;;;5.10;4.22;;;;;;;-143.21;37.96;70938.09;5073366;28;20197;-79
2023/08/13 16:37:55;;;;;;;5.75;4.40;;;;;;;-143.21;38.26;70953.94;5073772;28;20721;-79
2023/08/13 16:40:22;;;;;;;6.65;3.88;;;;;;;-143.21;38.27;70977.72;5073428;28;20681;-79
2023/08/13 16:42:48;;;;;;;4.93;3.95;;;;;;;-143.21;37.97;70983.69;5073306;28;20208;-79
2023/08/13 16:45:15;;;;;;;5.43;4.13;;;;;;;-143.21;38.18;70995.56;5073565;28;20633;-79
2023/08/13 16:47:42;;;;;;;6.45;4.32;;;;;;;-143.21;38.52;71007.47;5075297;28;20201;-79
2023/08/13 16:50:09;;;;;;;8.82;4.65;;;;;;;-143.21;38.94;71023.34;5073481;28;20200;-80
2023/08/13 16:52:41;;;;;;;7.13;3.88;;;;;;;-143.21;38.86;71027.28;5073321;28;20233;-82
2023/08/13 16:55:09;;;;;;;5.05;4.43;;;;;;;-143.21;39.42;71035.22;5071339;28;20197;-78
2023/08/13 16:57:36;;;;;;;4.68;4.00;;;;;;;-143.21;39.50;71041.16;5072478;28;20201;-80
2023/08/13 17:00:06;;;;;;;11.38;4.60;;;;;;;-143.21;39.53;71051.09;5072894;28;20221;-80
2023/08/13 17:02:33;;;;;;;7.65;4.80;;;;;;;-143.21;40.02;71059.00;5072848;28;20276;-79
2023/08/13 17:05:04;;;;;;;7.05;3.90;;;;;;;-143.21;40.17;71061.00;5073370;28;20196;-80
2023/08/13 17:07:35;;;;;;;5.75;3.83;;;;;;;-143.21;40.45;71070.91;5073929;28;20192;-81
2023/08/13 17:10:05;;;;;;;5.82;4.13;;;;;;;-143.21;40.38;71082.81;5072759;28;20251;-81
2023/08/13 17:12:35;;;;;;;4.40;3.95;;;;;;;-143.21;40.70;71092.72;5072128;28;20225;-80
2023/08/13 17:15:07;;;;;;;5.15;4.55;;;;;;;-143.21;41.04;71102.63;5072932;28;20193;-81
2023/08/13 17:17:39;;;;;;;5.82;4.13;;;;;;;-143.21;41.27;71118.50;5072401;28;20225;-80
2023/08/13 17:20:16;;;;;;;5.07;4.07;;;;;;;-143.21;40.86;71120.47;5073133;28;20186;-79
2023/08/13 17:22:43;;;;;;;7.72;4.25;;;;;;;-143.21;41.01;71130.38;5072868;28;20647;-80
2023/08/13 17:25:11;;;;;;;8.32;4.38;;;;;;;-143.21;41.15;71126.41;5075405;28;20201;-79
2023/08/13 17:27:38;;;;;;;4.85;4.10;;;;;;;-143.21;41.50;71138.31;5072205;28;20186;-80
2023/08/13 17:30:06;;;;;;;5.25;4.30;;;;;;;-143.21;41.36;71134.34;5072428;28;20396;-78
2023/08/13 17:32:33;;;;;;;6.25;4.78;;;;;;;-143.21;41.45;71140.28;5072027;28;20225;-79
2023/08/13 17:34:59;;;;;;;5.57;4.13;;;;;;;-143.21;41.80;71146.25;5072093;28;20200;-78
2023/08/13 17:37:26;;;;;;;7.07;4.43;;;;;;;-143.21;41.63;71154.16;5072217;28;20254;-77
2023/08/13 17:39:54;;;;;;;7.50;4.43;;;;;;;-143.21;41.75;71160.13;5072285;28;20246;-77
2023/08/13 17:42:26;;;;;;;6.57;4.18;;;;;;;-143.21;41.96;71166.06;5072181;28;20206;-78
2023/08/13 17:44:52;;;;;;;5.60;4.32;;;;;;;-143.21;41.99;71168.06;5072498;28;20180;-80
2023/08/13 17:47:19;;;;;;;5.57;4.50;;;;;;;-143.21;41.93;71170.03;5070885;28;20667;-79
2023/08/13 17:49:46;;;;;;;10.18;4.70;;;;;;;-143.21;42.12;71175.97;5072144;28;20244;-79
2023/08/13 17:52:14;;;;;;;6.70;4.63;;;;;;;-143.21;41.66;71179.94;5071606;28;20225;-80
2023/08/13 17:54:40;;;;;;;5.68;4.40;;;;;;;-143.21;42.07;71183.91;5071550;28;20707;-80
2023/08/13 17:57:07;;;;;;;5.30;4.47;;;;;;;-143.21;42.29;71187.88;5071751;28;20278;-79
2023/08/13 17:59:35;;;;;;;6.28;4.55;;;;;;;-143.21;42.31;71191.84;5072177;28;20211;-78
2023/08/13 18:02:03;;;;;;;8.18;4.70;;;;;;;-143.21;41.98;71195.81;5072745;28;20604;-79
2023/08/13 18:04:29;;;;;;;5.97;4.13;;;;;;;-143.21;41.97;71197.78;5071552;28;20671;-79
2023/08/13 18:06:56;;;;;;;5.80;4.68;;;;;;;-143.21;42.42;71209.69;5071595;28;20686;-79
2023/08/13 18:09:23;;;;;;;7.00;4.70;;;;;;;-143.21;42.22;71213.66;5071429;28;20201;-79
2023/08/13 18:11:50;;;;;;;6.32;4.50;;;;;;;-143.21;42.20;71209.69;5071517;28;20228;-79
2023/08/13 18:14:24;;;;;;;7.63;4.95;;;;;;;-143.21;43.04;71217.59;5071465;28;20202;-79
2023/08/13 18:16:52;;;;;;;7.68;4.85;;;;;;;-143.21;42.27;71223.56;5071346;28;20188;-79
2023/08/13 18:19:19;;;;;;;6.22;4.70;;;;;;;-143.21;42.43;71229.50;5071449;28;20198;-79
2023/08/13 18:21:46;;;;;;;6.78;4.68;;;;;;;-143.21;43.19;71239.41;5071237;28;20280;-78
2023/08/13 18:24:14;;;;;;;6.68;4.70;;;;;;;-143.21;43.04;71243.38;5072493;28;20640;-79
2023/08/13 18:26:42;;;;;;;8.02;5.15;;;;;;;-143.21;42.87;71247.34;5071233;28;20671;-81
2023/08/13 18:29:09;;;;;;;7.28;5.18;;;;;;;-143.21;43.65;71261.22;5071581;28;20678;-80
2023/08/13 18:31:35;;;;;;;7.82;4.72;;;;;;;-143.21;43.72;71267.19;5071163;28;20652;-82
2023/08/13 18:34:04;;;;;;;7.70;4.90;;;;;;;-143.21;43.24;71271.13;5071289;28;20197;-81
2023/08/13 18:36:31;;;;;;;8.80;5.70;;;;;;;-143.21;43.88;71285.03;5071589;28;20270;-80
2023/08/13 18:38:58;;;;;;;9.73;5.40;;;;;;;-143.21;43.86;71294.94;5071235;28;20193;-79
2023/08/13 18:41:25;;;;;;;8.00;5.07;;;;;;;-143.21;44.39;71306.81;5071253;28;20259;-78
2023/08/13 18:43:51;;;;;;;8.90;5.30;;;;;;;-143.21;44.16;71308.81;5071100;28;20583;-78
2023/08/13 18:46:19;;;;;;;8.63;5.25;;;;;;;-143.21;44.55;71318.72;5071305;28;20605;-78
2023/08/13 18:48:46;;;;;;;9.75;5.85;;;;;;;-143.21;44.31;71322.69;5074073;28;20251;-79
2023/08/13 18:51:14;;;;;;;6.78;5.38;;;;;;;-143.21;44.92;71330.63;5071159;28;20209;-79
2023/08/13 18:53:41;;;;;;;9.45;5.95;;;;;;;-143.21;44.69;71338.53;5070590;28;20252;-79
2023/08/13 18:56:08;;;;;;;8.10;5.80;;;;;;;-143.21;44.96;71336.56;5071139;28;20290;-78
2023/08/13 18:58:34;;;;;;;8.90;5.25;;;;;;;-143.21;45.10;71346.47;5073921;28;20201;-78
2023/08/13 19:01:01;;;;;;;12.13;5.78;;;;;;;-143.21;44.98;71344.50;5077742;28;20239;-78
2023/08/13 19:03:28;;;;;;;7.93;5.35;;;;;;;-143.21;45.43;71356.38;5077545;28;20204;-78
2023/08/13 19:05:55;;;;;;;9.35;5.32;;;;;;;-143.21;45.42;71360.34;5077774;28;20199;-79
2023/08/13 19:08:23;;;;;;;7.72;5.55;;;;;;;-143.21;45.82;71368.28;5077195;28;20730;-79
2023/08/13 19:10:50;;;;;;;6.10;5.05;;;;;;;-143.21;46.18;71366.31;5077957;28;20193;-79
2023/08/13 19:13:17;;;;;;;8.45;5.55;;;;;;;-143.21;45.93;71376.22;5078131;28;20232;-79
2023/08/13 19:15:44;;;;;;;9.13;5.80;;;;;;;-143.21;46.42;71386.13;5077288;28;20287;-79
2023/08/13 19:18:11;;;;;;;8.02;5.75;;;;;;;-143.21;46.97;71386.13;5077436;28;20190;-78
2023/08/13 19:20:38;;;;;;;9.10;5.45;;;;;;;-143.21;47.13;71390.09;5077234;28;20590;-80
2023/08/13 19:23:05;;;;;;;9.32;5.55;;;;;;;-143.21;47.37;71392.06;5076935;28;20189;-79
2023/08/13 19:25:33;;;;;;;10.73;6.57;;;;;;;-143.21;47.46;71392.06;5077885;28;20197;-80
2023/08/13 19:28:00;;;;;;;10.38;6.00;;;;;;;-143.21;47.22;71396.03;5074029;28;20217;-80
2023/08/13 19:30:27;;;;;;;10.85;5.72;;;;;;;-143.21;47.23;71394.06;5076855;28;20208;-80
2023/08/13 19:32:55;;;;;;;7.57;5.85;;;;;;;-143.21;47.47;71396.03;5075188;28;20435;-80
2023/08/13 19:35:22;;;;;;;10.10;5.70;;;;;;;-143.21;47.56;71398.03;5075443;28;20657;-79
2023/08/13 19:37:49;;;;;;;12.02;6.18;;;;;;;-143.21;48.39;71398.03;5074808;28;20213;-78
2023/08/13 19:40:16;;;;;;;7.55;5.30;;;;;;;-143.21;48.27;71405.94;5074847;28;20274;-79
2023/08/13 19:42:45;;;;;;;6.90;5.53;;;;;;;-143.21;48.44;71411.91;5074873;28;20193;-80
2023/08/13 19:45:11;;;;;;;8.65;5.72;;;;;;;-143.21;48.06;71405.94;5077546;28;20212;-80
2023/08/13 19:47:38;;;;;;;10.27;5.88;;;;;;;-143.21;48.54;71413.88;5076351;28;20279;-81
2023/08/13 19:50:06;;;;;;;8.52;5.47;;;;;;;-143.21;48.89;71417.84;5077434;28;20250;-81
2023/08/13 19:52:33;;;;;;;10.38;5.90;;;;;;;-143.21;48.76;71431.72;5077254;28;20635;-80
2023/08/13 19:55:00;;;;;;;9.20;5.55;;;;;;;-143.21;48.60;71435.69;5076910;28;20301;-79
2023/08/13 19:57:26;;;;;;;11.88;6.00;;;;;;;-143.21;49.08;71443.63;5074007;28;20205;-80
2023/08/13 19:59:57;;;;;;;11.75;5.97;;;;;;;-143.21;49.20;71445.59;5054623;28;20194;-80
2023/08/13 20:02:27;;;;;;;12.30;6.53;;;;;;;-143.21;49.87;71453.53;5070544;28;20229;-80
2023/08/13 20:04:54;;;;;;;15.60;7.00;;;;;;;-143.21;50.08;71463.44;5074909;28;20655;-80
2023/08/13 20:07:21;;;;;;;12.68;6.43;;;;;;;-143.21;50.17;71473.38;5074462;28;20539;-79
2023/08/13 20:09:49;;;;;;;14.20;6.68;;;;;;;-143.21;50.23;71487.25;5072788;28;20208;-80
2023/08/13 20:12:16;;;;;;;12.05;6.47;;;;;;;-143.21;51.01;71489.22;5072074;28;20225;-80
2023/08/13 20:14:43;;;;;;;10.57;6.45;;;;;;;-143.21;50.93;71507.06;5072465;28;20588;-80
2023/08/13 20:17:11;;;;;;;12.75;6.63;;;;;;;-143.21;51.36;71509.06;5071662;28;20211;-80
2023/08/13 20:19:37;;;;;;;8.88;6.63;;;;;;;-143.21;51.59;71522.94;5071951;28;20198;-80
2023/08/13 20:22:04;;;;;;;12.13;6.22;;;;;;;-143.21;52.04;71538.78;5070909;28;20194;-80
2023/08/13 20:24:31;;;;;;;11.48;6.78;;;;;;;-143.21;52.45;71548.72;5071280;28;20193;-80
2023/08/13 20:26:58;;;;;;;12.02;7.03;;;;;;;-143.21;52.62;71556.63;5071003;28;20220;-83
2023/08/13 20:29:26;;;;;;;14.88;7.07;;;;;;;-143.21;52.95;71568.53;5069332;28;20205;-79
2023/08/13 20:31:53;;;;;;;11.65;6.85;;;;;;;-143.21;52.99;71570.53;5071818;28;20259;-80
2023/08/13 20:34:26;;;;;;;15.15;7.03;;;;;;;-143.21;53.06;71578.44;5071528;28;20201;-81
2023/08/13 20:36:52;;;;;;;12.73;6.63;;;;;;;-143.21;53.25;71574.47;5071359;28;20275;-81
2023/08/13 20:39:19;;;;;;;11.98;6.70;;;;;;;-143.21;53.29;71576.47;5071611;28;20198;-81
2023/08/13 20:41:46;;;;;;;12.38;7.38;;;;;;;-143.21;53.57;71584.41;5071870;28;20207;-80
2023/08/13 20:44:13;;;;;;;17.25;10.80;;;;;;;-143.21;53.78;71590.34;5071066;28;20702;-82
2023/08/13 20:46:40;;;;;;;22.65;11.30;;;;;;;-143.21;53.91;71600.25;5070766;28;20207;-80
2023/08/13 20:49:19;;;;;;;22.42;10.23;;;;;;;-143.21;54.69;71610.16;5070614;28;20198;-80
2023/08/13 20:51:47;;;;;;;20.67;9.50;;;;;;;-143.21;55.11;71618.09;5071267;28;20248;-79
2023/08/13 20:54:14;;;;;;;15.88;10.27;;;;;;;-143.21;55.43;71626.03;5070972;28;20233;-80
2023/08/13 20:56:41;;;;;;;19.60;11.13;;;;;;;-143.21;55.90;71637.94;5071073;28;20527;-81
2023/08/13 20:59:08;;;;;;;20.15;13.73;;;;;;;-143.21;55.79;71647.84;5071213;28;20213;-81
2023/08/13 21:01:35;;;;;;;27.65;15.05;;;;;;;-143.21;55.83;71653.78;5070930;28;20308;-81
2023/08/13 21:04:02;;;;;;;29.65;14.48;;;;;;;-143.21;55.99;71661.72;5069911;28;20262;-80
2023/08/13 21:06:31;;;;;;;22.85;14.57;;;;;;;-143.21;55.90;71665.69;5070870;28;20208;-81
2023/08/13 21:08:59;;;;;;;25.42;13.80;;;;;;;-143.21;56.66;71669.66;5070576;28;20202;-83
2023/08/13 21:11:26;;;;;;;26.33;15.13;;;;;;;-143.21;56.94;71675.59;5071034;28;20259;-82
2023/08/13 21:13:53;;;;;;;32.88;14.65;;;;;;;-143.21;56.69;71671.63;5067199;28;20217;-81
2023/08/13 21:16:19;;;;;;;23.00;13.45;;;;;;;-143.21;57.02;71673.63;5070486;28;20205;-80
2023/08/13 21:18:46;;;;;;;22.77;12.38;;;;;;;-143.21;56.98;71669.66;5069818;28;20202;-80
2023/08/13 21:21:13;;;;;;;19.77;11.82;;;;;;;-143.21;57.21;71671.63;5070026;28;20208;-79
2023/08/13 21:23:40;;;;;;;21.60;13.13;;;;;;;-143.21;57.44;71673.63;5070363;28;20190;-82
2023/08/13 21:26:08;;;;;;;19.23;11.80;;;;;;;-143.21;57.53;71689.47;5070591;28;20208;-81
2023/08/13 21:28:35;;;;;;;19.23;11.32;;;;;;;-143.21;57.83;71701.38;5068657;28;20197;-81
2023/08/13 21:31:01;;;;;;;17.60;11.00;;;;;;;-143.21;57.97;71709.31;5070532;28;20209;-80
2023/08/13 21:33:28;;;;;;;20.50;11.20;;;;;;;-143.21;58.06;71725.16;5070049;28;20233;-79
2023/08/13 21:35:55;;;;;;;15.13;10.38;;;;;;;-143.21;57.97;71729.13;5070104;28;20201;-80
2023/08/13 21:38:22;;;;;;;18.35;10.70;;;;;;;-143.21;58.16;71733.09;5069888;28;20197;-80
2023/08/13 21:40:52;;;;;;;17.13;10.73;;;;;;;-143.21;58.57;71737.06;5070265;28;20200;-81
2023/08/13 21:43:21;;;;;;;16.48;10.93;;;;;;;-143.21;58.42;71746.97;5070812;28;20205;-82
2023/08/13 21:45:48;;;;;;;18.25;10.85;;;;;;;-143.21;58.35;71752.94;5071370;28;20267;-80
2023/08/13 21:48:15;;;;;;;17.05;10.32;;;;;;;-143.21;58.48;71745.00;5071853;28;20201;-81
2023/08/13 21:50:42;;;;;;;16.88;9.52;;;;;;;-143.21;58.60;71739.06;5073655;28;20201;-80
2023/08/13 21:53:09;;;;;;;18.27;10.60;;;;;;;-143.21;58.53;71743.00;5072073;28;20703;-81
2023/08/13 21:55:36;;;;;;;16.75;10.25;;;;;;;-143.21;58.28;71739.06;5072396;28;20204;-81
2023/08/13 21:58:03;;;;;;;16.67;10.43;;;;;;;-143.21;58.47;71737.06;5072557;28;20212;-82
2023/08/13 22:00:31;;;;;;;11.95;9.43;;;;;;;-143.21;58.18;71743.00;5072217;28;20247;-80
2023/08/13 22:02:58;;;;;;;18.15;9.82;;;;;;;-143.21;57.92;71739.06;5063598;28;20201;-81
2023/08/13 22:05:25;;;;;;;15.00;9.65;;;;;;;-143.21;57.87;71752.94;5072011;28;20209;-80
2023/08/13 22:07:52;;;;;;;13.65;8.88;;;;;;;-143.21;57.98;71754.91;5076330;28;20598;-81
2023/08/13 22:10:19;;;;;;;15.23;9.40;;;;;;;-143.21;57.87;71756.91;5071887;28;20205;-82
2023/08/13 22:12:45;;;;;;;13.43;8.68;;;;;;;-143.21;57.90;71764.81;5071608;28;20607;-82
2023/08/13 22:15:12;;;;;;;13.07;8.13;;;;;;;-143.21;58.08;71766.81;5071885;28;20683;-82
2023/08/13 22:17:40;;;;;;;15.80;8.98;;;;;;;-143.21;57.90;71770.78;5071514;28;20201;-82
2023/08/13 22:20:09;;;;;;;16.45;9.13;;;;;;;-143.21;57.88;71774.75;5071551;28;20198;-81
2023/08/13 22:22:35;;;;;;;14.40;9.27;;;;;;;-143.21;58.60;71788.63;5071459;28;20670;-82
2023/08/13 22:25:03;;;;;;;15.07;9.57;;;;;;;-143.21;59.11;71788.63;5071786;28;20251;-82
2023/08/13 22:27:30;;;;;;;15.50;10.10;;;;;;;-143.21;59.81;71786.63;5076429;28;20287;-82
2023/08/13 22:29:57;;;;;;;14.68;9.27;;;;;;;-143.21;59.51;71790.59;5071652;28;20659;-82
2023/08/13 22:32:24;;;;;;;20.58;9.95;;;;;;;-143.21;59.48;71788.63;5071119;28;20201;-81
2023/08/13 22:34:52;;;;;;;16.33;10.45;;;;;;;-143.21;59.95;71780.69;5070878;28;20224;-81
2023/08/13 22:37:19;;;;;;;13.98;9.63;;;;;;;-143.21;59.80;71778.72;5071138;28;20354;-81
2023/08/13 22:39:45;;;;;;;22.15;10.23;;;;;;;-143.21;60.09;71778.72;5071562;28;20205;-81
2023/08/13 22:42:13;;;;;;;14.98;9.63;;;;;;;-143.21;60.60;71794.56;5071613;28;20205;-81
2023/08/13 22:44:40;;;;;;;15.95;10.30;;;;;;;-143.21;60.71;71796.56;5071555;28;20197;-83
2023/08/13 22:47:07;;;;;;;18.40;10.00;;;;;;;-143.21;60.95;71800.53;5071460;28;20208;-81
2023/08/13 22:49:35;;;;;;;15.45;9.70;;;;;;;-143.21;61.49;71816.38;5071657;28;20664;-80
2023/08/13 22:52:06;;;;;;;11.85;7.93;;;;;;;-143.21;60.47;71820.34;5071713;28;20206;-81
2023/08/13 22:54:34;;;;;;;19.23;9.05;;;;;;;-143.21;60.89;71832.25;5071127;28;20237;-82
2023/08/13 22:57:02;;;;;;;10.63;7.88;;;;;;;-143.21;61.01;71844.16;5071927;28;20213;-82
2023/08/13 22:59:28;;;;;;;14.52;7.72;;;;;;;-143.21;61.25;71852.06;5071286;28;20198;-82
2023/08/13 23:01:55;;;;;;;14.88;8.30;;;;;;;-143.21;61.46;71858.03;5071430;28;20224;-83
2023/08/13 23:04:22;;;;;;;12.60;7.85;;;;;;;-143.21;62.39;71869.91;5071148;28;20212;-82
2023/08/13 23:06:49;;;;;;;12.63;8.57;;;;;;;-143.21;62.88;71869.91;5071756;28;20193;-82
2023/08/13 23:09:18;;;;;;;14.98;8.40;;;;;;;-143.21;62.69;71867.94;5071459;28;20690;-82
2023/08/13 23:11:44;;;;;;;14.38;8.30;;;;;;;-143.21;62.95;71867.94;5071434;28;20280;-81
2023/08/13 23:14:11;;;;;;;15.95;8.55;;;;;;;-143.21;62.72;71867.94;5070772;28;20228;-82
2023/08/13 23:16:38;;;;;;;14.93;8.77;;;;;;;-143.21;62.55;71858.03;5071700;28;20229;-82
2023/08/13 23:19:05;;;;;;;16.02;8.38;;;;;;;-143.21;62.52;71860.00;5071105;28;20287;-82
2023/08/13 23:21:32;;;;;;;13.27;8.20;;;;;;;-143.21;62.73;71863.97;5051054;28;20202;-82
2023/08/13 23:24:00;;;;;;;10.90;8.50;;;;;;;-143.21;62.96;71860.00;5059568;28;20190;-82
2023/08/13 23:26:28;;;;;;;13.18;9.23;;;;;;;-143.21;62.78;71856.03;5051427;28;20191;-83
2023/08/13 23:28:55;;;;;;;17.13;8.48;;;;;;;-143.21;62.91;71862.00;5063293;28;20208;-83
2023/08/13 23:31:22;;;;;;;14.48;8.80;;;;;;;-143.21;63.27;71873.88;5071258;28;20251;-82
2023/08/13 23:33:49;;;;;;;17.85;8.73;;;;;;;-143.21;63.59;71879.84;5071197;28;20295;-82
2023/08/13 23:36:16;;;;;;;16.95;9.50;;;;;;;-143.21;63.17;71871.91;5071248;28;20284;-82
2023/08/13 23:38:43;;;;;;;14.57;9.57;;;;;;;-143.21;62.80;71875.88;5071766;28;20208;-81
2023/08/13 23:41:10;;;;;;;14.77;9.38;;;;;;;-143.21;62.38;71879.84;5071322;28;20204;-82
2023/08/13 23:43:38;;;;;;;13.13;9.07;;;;;;;-143.21;62.42;71883.81;5072712;28;20201;-82
2023/08/13 23:46:05;;;;;;;16.40;9.48;;;;;;;-143.21;62.41;71893.72;5076747;28;20572;-82
2023/08/13 23:48:32;;;;;;;15.50;9.40;;;;;;;-143.21;63.04;71895.69;5074661;28;20637;-82
2023/08/13 23:51:01;;;;;;;14.52;8.55;;;;;;;-143.21;62.86;71893.72;5074486;28;20202;-81
2023/08/13 23:53:28;;;;;;;12.82;8.77;;;;;;;-143.21;63.20;71893.72;5074413;28;20267;-81
2023/08/13 23:55:55;;;;;;;12.10;8.25;;;;;;;-143.21;63.71;71893.72;5074713;28;20237;-81
2023/08/13 23:58:22;;;;;;;10.85;8.07;;;;;;;-143.21;63.59;71885.78;5073741;28;20206;-81
